ADDS METAR Data INFO
IDs: Format: Raw Decoded Include TAF

Data at: 1155 UTC 25 Jun 2018

KBGD 251151Z AUTO 28005KT 10SM OVC110 16/14 A3007 RMK AO2 SLP147 60047 70117 T01610144 10161 20156 51026
KBGD 251051Z AUTO 27003KT 10SM FEW016 SCT110 16/14 A3006 RMK AO2 LTG DSNT E AND SE SLP142 T01560144
KBGD 250951Z AUTO 22004KT 10SM BKN016 OVC021 16/14 A3005 RMK AO2 LTG DSNT SE AND S SLP140 T01560144
KBGD 250939Z AUTO 25004KT 10SM BKN016 16/14 A3005 RMK AO2 LTG DSNT SE AND S T01610144
KBGD 250928Z AUTO VRB03KT 10SM BKN014 16/14 A3003 RMK AO2 LTG DSNT SE-SW T01610144
KBGD 250851Z AUTO 03008KT 10SM FEW009 FEW016 SCT090 16/14 A2999 RMK AO2 LTG DSNT E-SW RAE30 TSE05 SLP120 P0003 60047 T01610144 56013
KBGD 250811Z AUTO 03005KT 9SM -RA OVC100 16/14 A3001 RMK AO2 LTG DSNT SE AND SW TSE05 P0002 T01610144
KBGD 250751Z AUTO 06008G18KT 10SM -TSRA FEW011 BKN100 OVC120 16/14 A3000 RMK AO2 WSHFT 0736 LTG DSNT ALQDS SLP125 P0013 T01610139
KBGD 250651Z AUTO 12011G16KT 6SM TSRA BR FEW007 BKN044 OVC090 16/14 A3003 RMK AO2 PK WND 07026/0601 LTG DSNT ALQDS TSE16B20 SLP137 P0031 T01560139
KBGD 250608Z AUTO 06017G26KT 10SM -TSRA BKN042 BKN100 16/14 A3001 RMK AO2 PK WND 07026/0601 LTG DSNT ALQDS P0009 T01560139
KBGD 250550Z AUTO 08015G20KT 2SM +TSRA BR FEW017 OVC036 15/14 A3005 RMK AO2 PK WND 03035/0452 LTG DSNT ALQDS RAB0453 TSB19 SLP145 P0070 60070 T01500139 10289 20150 402940150 51073
KBGD 250549Z AUTO 08015G20KT 2SM +TSRA BR FEW017 OVC036 15/14 A3005 RMK AO2 PK WND 03035/0452 LTG DSNT ALQDS RAB0453 TSB19 P0068
KBGD 250531Z AUTO 04011G21KT 1 1/4SM +TSRA BR SCT008 BKN017 OVC022 16/14 A3010 RMK AO2 PK WND 03035/0452 LTG DSNT ALQDS RAB0453 TSB19 P0034 T01560139
KBGD 250521Z AUTO 2 1/2SM +TSRA BR BKN008 BKN015 OVC043 16/14 A3008 RMK AO2 PK WND 03035/0452 LTG DSNT ALQDS RAB0453 TSB19 P0011 T01610139
KBGD 250512Z AUTO 22005KT 7SM VCTS -RA BKN008 BKN014 OVC041 16/14 A3008 RMK AO2 PK WND 03035/0452 LTG DSNT ALQDS RAB0453 P0001 T01560139
KBGD 250502Z AUTO 05015G32KT 9SM VCTS -RA SCT012 OVC040 16/14 A3004 RMK AO2 PK WND 03035/0452 LTG DSNT ALQDS RAB0453 PRESRR P0000 T01610139
KBGD 250451Z AUTO 03027G36KT 10SM FEW014 BKN033 OVC040 17/14 A3003 RMK AO2 PK WND 03044/0421 LTG DSNT NW-E PRESRR SLP139 T01670139
KBGD 250351Z AUTO 34008KT 10SM BKN026 BKN032 24/19 A2989 RMK AO2 LTG DSNT N PRESRR SLP084 T02390189
KBGD 250341Z AUTO 01010KT 10SM BKN026 24/19 A2987 RMK AO2 T02390189
KBGD 250251Z AUTO 10007KT 10SM CLR 24/19 A2981 RMK AO2 SLP055 T02440189 58002
KBGD 250151Z AUTO 10010G18KT 10SM CLR 26/19 A2983 RMK AO2 SLP058 T02560189
KBGD 250051Z AUTO 13012KT 10SM CLR 27/19 A2982 RMK AO2 SLP055 T02720189
KBGD 242351Z AUTO 12012G19KT 10SM CLR 28/19 A2982 RMK AO2 SLP055 T02830189 10294 20222 56015
KBGD 242251Z AUTO 10009G17KT 10SM CLR 29/19 A2983 RMK AO2 SLP058 T02940189
KBGD 242151Z AUTO 10010G16KT 10SM CLR 29/18 A2985 RMK AO2 SLP065 T02890183
KBGD 242051Z AUTO 10011G18KT 10SM BKN060 27/17 A2987 RMK AO2 SLP070 T02720172 58014
KBGD 241951Z AUTO 09012G23KT 10SM BKN032 BKN060 25/16 A2989 RMK AO2 SLP078 T02500156
KBGD 241851Z AUTO 09013G22KT 10SM OVC030 24/16 A2991 RMK AO2 PK WND 08026/1753 SLP085 T02440156
KBGD 241832Z AUTO 08012G21KT 10SM OVC030 23/15 A2991 RMK AO2 PK WND 08026/1753 T02330150
KBGD 241751Z AUTO 08021G26KT 10SM OVC026 22/15 A2991 RMK AO2 PK WND 07035/1713 SLP090 T02220150 10272 20183 50006
KBGD 241651Z AUTO 06023G32KT 10SM OVC018 20/15 A2992 RMK AO2 PK WND 08032/1642 SLP092 T02000150
KBGD 241641Z AUTO 08019G29KT 10SM OVC016 20/15 A2992 RMK AO2 PK WND 07031/1630 T02000150
KBGD 241551Z AUTO 05022G30KT 10SM OVC012 21/17 A2990 RMK AO2 PK WND 04030/1550 SLP086 T02060167
KBGD 241521Z AUTO 04016G22KT 10SM BKN012 OVC040 22/18 A2990 RMK AO2 T02220183
KBGD 241451Z AUTO 05017G24KT 10SM FEW007 BKN023 OVC046 22/19 A2989 RMK AO2 PK WND 01038/1433 WSHFT 1425 SLP080 T02220189 53030
KBGD 241438Z AUTO 02020G38KT 10SM SCT007 SCT020 BKN028 22/18 A2990 RMK AO2 PK WND 01038/1433 T02170183
KBGD 241351Z AUTO 16008KT 10SM CLR 25/19 A2980 RMK AO2 SLP043 T02500194
KBGD 241310Z AUTO 16009KT 10SM SCT004 23/20 A2979 RMK AO2 T02280200
KBGD 241251Z AUTO 15008G18KT 6SM BR OVC003 21/19 A2978 RMK AO2 SLP039 T02110194
KBGD 241232Z AUTO 14011KT 5SM BR BKN003 OVC007 21/19 A2978 RMK AO2 T02060189
KBGD 241220Z AUTO 13011G16KT 8SM BKN005 20/18 A2978 RMK AO2 CIG 003V008 T02000183
KBGD 241210Z AUTO 13006KT 10SM SCT007 20/18 A2979 RMK AO2 T02000183
KBGD 241151Z AUTO 11007KT 10SM CLR 20/18 A2980 RMK AO2 SLP045 T02000178 10250 20194 55002
KBGD 241113Z AUTO 09007KT 10SM SCT006 20/18 A2980 RMK AO2 T02000183
KBGD 241051Z AUTO 10007KT 10SM OVC006 20/18 A2979 RMK AO2 SLP044 T02000183
KBGD 240951Z AUTO 08010KT 10SM OVC009 20/18 A2980 RMK AO2 SLP048 T02000183
KBGD 240915Z AUTO 05011KT 8SM BKN008 BKN013 21/19 A2980 RMK AO2 CIG 004V010 T02110194
KBGD 240903Z AUTO 07010KT 8SM FEW008 SCT013 22/20 A2980 RMK AO2 T02170200
KBGD 240851Z AUTO 07013KT 9SM FEW013 22/20 A2980 RMK AO2 SLP046 T02220200 53002
KBGD 240751Z AUTO 12006KT 10SM CLR 23/20 A2978 RMK AO2 SLP037 T02330200
KBGD 240651Z AUTO 09007KT 10SM CLR 24/20 A2982 RMK AO2 WSHFT 0625 SLP053 T02390200
KBGD 240551Z AUTO 13015G20KT 10SM CLR 23/20 A2980 RMK AO2 SLP046 T02330200 10306 20222 403110172 51007
KBGD 240451Z AUTO 12014G19KT 10SM CLR 24/19 A2979 RMK AO2 SLP043 T02440194
KBGD 240351Z AUTO 13009KT 10SM CLR 25/19 A2979 RMK AO2 SLP044 T02500189
KBGD 240251Z AUTO 12010KT 10SM CLR 27/19 A2978 RMK AO2 SLP040 T02670189 55005
KBGD 240151Z AUTO 13009KT 10SM CLR 29/18 A2977 RMK AO2 SLP038 T02890178
KBGD 240051Z AUTO 13010G18KT 10SM CLR 30/18 A2978 RMK AO2 SLP041 T03000178